Cut Bank Municipal Airport
KCTB : rendu visible

Aérodrome :











RETROUVEZ-NOUS SUR...

 
LOGIN :

S'inscrire | Disclaimer

   EN    FR    IT 

 









Légende :    VFR   VFR Marginal   IFR   IFR Intensif   IFR Très Intensif
Visi : 
Plafond : 
>= 8 km
>= 3000ft
5 à 8 km
1000 à 3000 ft
1500m à 5 km
500 à 1000 ft
800 à 1500m
200 à 500 ft
< 800m
< 200 ft
Symboles :   Orages  Brouillard  Fortes neiges  Fortes précipitations  Vent > 20 kt






- Altitude de l'aérodrome : 3854 ft


KCTB - Cut Bank Municipal

DERNIER METAR :
  • 222256Z AUTO 26020KT 10SM CLR 03/M06 A2994 RMK AO2 PK WND 25026/2221 SLP167 T00331056

METARs EXPIRÉS :
  • 222156Z AUTO 25013KT 10SM CLR 04/M04 A2995 RMK AO2 SLP169 T00391044
  • 222056Z AUTO 26017KT 10SM CLR 04/M04 A2994 RMK AO2 PK WND 26029/1958 SLP175 T00441044 51003
  • 221956Z AUTO 27021G25KT 10SM CLR 04/M04 A2993 RMK AO2 SLP176 T00391044

TAF KCTB
Valide du 22 à 18h jusqu'au 23 à 18h UTC


221747Z 2218/2318 27025G35KT P6SM FEW200
FM230300 26015G25KT P6SM FEW150 SCT200 WS020/27040KT
FM231700 26027G37KT P6SM SCT120 BKN200 WS020/27045KT



MET'MAP, la Météo Aéronautique d'un coup d'oeil ! - Copyright ORBIFLY Décembre 2007 - Disclaimer

ORBIFLY MET'MAP TEAM :

Programmation & Développement : Alexandra Zaïnal
Conception & Développement : Baudouin d'Aumeries
Co-Programmation & Développement : Marc-Olivier Méhu
Soutien technique & logistique : Manuel Goepfert

Contact : metmap@orbifly.com




SOURCES & CREDITS :

   NOAA       Earth
Advisory